Cement Trader — V2GQ4 — position and weather

sailwx.info

Track history (hours):
 
Tides and Currents Weather Stations Pressure Air Temp Water Temp Dewpoint Dewpoint Depression Visibility Wind Speed Wind Dir Waves Ship Positions

Cement Trader

Last reported at 2018-Jun-20 17:00 UTC. Time now 2018-Jun-20 17:16 UTC.
Position N 38°30' W 008°56'.

Length 106 m; draft 4.5 m.

Type: Cargo ship. MMSI: 304048000.

Date/timePositionNaut miles runAvg speedWind from/ knotsBaromVisibWave heightAir tempDewpointWater temp
2018-Jun-20 17:00N 38°30' W 008°56'0 0.0
2018-Jun-20 16:30N 38°30' W 008°56'0 0.0
2018-Jun-20 16:00N 38°30' W 008°56'0 0.0
2018-Jun-20 15:30N 38°30' W 008°56'0 0.0
2018-Jun-20 15:00N 38°30' W 008°56'0 0.0
2018-Jun-20 14:30N 38°30' W 008°56'0 0.0
2018-Jun-20 14:00N 38°30' W 008°56'0 0.0
2018-Jun-20 13:30N 38°30' W 008°56'0 0.0
2018-Jun-20 13:00N 38°30' W 008°56'0 0.0
2018-Jun-20 12:30N 38°30' W 008°56'0 0.0
2018-Jun-20 12:00N 38°30' W 008°56'0 0.0
2018-Jun-20 11:30N 38°30' W 008°56'0 0.0
2018-Jun-20 11:00N 38°30' W 008°56'0 0.0
2018-Jun-20 10:30N 38°30' W 008°56'0 0.0
2018-Jun-20 10:00N 38°30' W 008°56'0 0.0
2018-Jun-20 09:30N 38°30' W 008°56'0 0.0
2018-Jun-20 09:00N 38°30' W 008°56'0 0.0
2018-Jun-20 08:30N 38°30' W 008°56'0 0.0
2018-Jun-20 08:00N 38°30' W 008°56'4 7.1
2018-Jun-20 07:30N 38°27' W 008°59'5 9.8
2018-Jun-20 07:00N 38°23' W 009°02'0 0.4
2018-Jun-20 06:30N 38°23' W 009°02'1 1.4
2018-Jun-20 06:00N 38°22' W 009°02'0 0.7
2018-Jun-20 05:30N 38°22' W 009°02'0 0.7
2018-Jun-20 05:00N 38°22' W 009°03'1 1.6
2018-Jun-20 04:30N 38°22' W 009°03'3 5.1
2018-Jun-20 04:00N 38°21' W 009°07'510.7
2018-Jun-20 03:30N 38°21' W 009°13'611.3
2018-Jun-20 03:00N 38°22' W 009°20'611.3
2018-Jun-20 02:30N 38°25' W 009°27'611.3
2018-Jun-20 02:00N 38°27' W 009°34'611.4
2018-Jun-20 01:30N 38°28' W 009°41'611.8
2018-Jun-20 01:00N 38°30' W 009°48'612.0
2018-Jun-20 00:30N 38°32' W 009°55'611.9
2018-Jun-20 00:00N 38°34' W 010°02'611.3
2018-Jun-19 23:30N 38°39' W 010°05'611.8
2018-Jun-19 23:00N 38°45' W 010°06'612.2
2018-Jun-19 22:30N 38°51' W 010°06'612.1
2018-Jun-19 22:01N 38°57' W 010°07'612.1
2018-Jun-19 21:30N 39°03' W 010°07'611.8
2018-Jun-19 21:00N 39°09' W 010°07'1511.9
2018-Jun-19 19:45N 39°24' W 010°07'4111.8
2018-Jun-19 16:19N 40°05' W 010°07'  
2018-Jun-17 04:41N 49°44' W 003°39'312.0
2018-Jun-17 04:28N 49°45' W 003°35'612.6
2018-Jun-17 04:00N 49°48' W 003°27'713.2
2018-Jun-17 03:28N 49°52' W 003°18'613.4
2018-Jun-17 02:59N 49°55' W 003°09'613.3
2018-Jun-17 02:30N 49°57' W 002°60'612.8
2018-Jun-17 02:00N 50°00' W 002°51'612.3
2018-Jun-17 01:30N 50°02' W 002°42'611.5
2018-Jun-17 00:56N 50°04' W 002°32'77 9.6
2018-Jun-16 16:55N 50°26' W 000°37'813.0
2018-Jun-16 16:19N 50°28' W 000°25'2812.4
2018-Jun-16 14:04N 50°35' E 000°17'111.9
2018-Jun-16 14:00N 50°36' E 000°18'611.4
2018-Jun-16 13:30N 50°37' E 000°27'510.9
2018-Jun-16 13:00N 50°39' E 000°35'510.6
2018-Jun-16 12:30N 50°42' E 000°42'510.2
2018-Jun-16 12:00N 50°45' E 000°48'510.2
2018-Jun-16 11:30N 50°48' E 000°55'510.2
2018-Jun-16 11:00N 50°51' E 001°01'610.7
2018-Jun-16 10:29N 50°55' E 001°08'611.9
2018-Jun-16 10:00N 50°58' E 001°15'713.5
2018-Jun-16 09:31N 51°02' E 001°23'714.9
2018-Jun-16 09:00N 51°07' E 001°33'714.9
2018-Jun-16 08:30N 51°12' E 001°42'714.0
2018-Jun-16 08:00N 51°17' E 001°49'713.2
2018-Jun-16 07:31N 51°22' E 001°56'510.6
2018-Jun-16 07:00N 51°24' E 002°04'612.2
2018-Jun-16 06:30N 51°22' E 002°13'611.4
2018-Jun-16 06:00N 51°21' E 002°22'611.3
2018-Jun-16 05:31N 51°23' E 002°30'611.1
2018-Jun-16 05:00N 51°23' E 002°39'510.5
2018-Jun-16 04:31N 51°22' E 002°48'610.8
2018-Jun-16 04:00N 51°22' E 002°57'510.2
2018-Jun-16 03:30N 51°22' E 003°05'510.2
2018-Jun-16 03:00N 51°23' E 003°13'5 9.8
2018-Jun-16 02:30N 51°24' E 003°20'5 9.2
2018-Jun-16 02:00N 51°25' E 003°28'4 7.8
2018-Jun-16 01:30N 51°25' E 003°34'4 7.5
2018-Jun-16 01:00N 51°25' E 003°40'510.2
2018-Jun-16 00:30N 51°22' E 003°46'3 4.9
2018-Jun-15 23:58N 51°20' E 003°49'0 0.0
2018-Jun-15 23:28N 51°20' E 003°49'0 0.1
2018-Jun-15 22:59N 51°20' E 003°49'1 1.3
2018-Jun-15 22:30N 51°19' E 003°49'2 3.4
2018-Jun-15 22:01N 51°18' E 003°50'1 2.4
2018-Jun-15 21:28N 51°16' E 003°51'0 0.0
2018-Jun-15 20:58N 51°16' E 003°51'0 0.0
2018-Jun-15 20:28N 51°16' E 003°51'0 0.0
2018-Jun-15 19:58N 51°16' E 003°51'0 0.0
2018-Jun-15 19:25N 51°16' E 003°51'0 0.0
2018-Jun-15 18:58N 51°16' E 003°51'0 0.0
2018-Jun-15 18:28N 51°16' E 003°51'0 0.0
2018-Jun-15 17:49N 51°16' E 003°51'0 0.0
2018-Jun-15 17:28N 51°16' E 003°51'0 0.0
2018-Jun-15 16:58N 51°16' E 003°51'0 0.0
2018-Jun-15 16:25N 51°16' E 003°51'0 0.0
2018-Jun-15 15:58N 51°16' E 003°51'0 0.0
2018-Jun-15 15:28N 51°16' E 003°51'0 0.0
2018-Jun-15 14:52N 51°16' E 003°51'0 0.0
2018-Jun-15 14:28N 51°16' E 003°51'0 0.0
2018-Jun-15 13:55N 51°16' E 003°51'0 0.0
2018-Jun-15 13:28N 51°16' E 003°51'0 0.0
2018-Jun-15 12:58N 51°16' E 003°51'0 0.0
2018-Jun-15 12:28N 51°16' E 003°51'0 0.0
2018-Jun-15 11:58N 51°16' E 003°51'0 0.0
2018-Jun-15 11:25N 51°16' E 003°51'0 0.0
2018-Jun-15 10:58N 51°16' E 003°51'0 0.0
2018-Jun-15 10:28N 51°16' E 003°51'0 0.0
2018-Jun-15 09:58N 51°16' E 003°51'0 0.0
2018-Jun-15 09:28N 51°16' E 003°51'0 0.0
2018-Jun-15 08:55N 51°16' E 003°51'0 0.0
2018-Jun-15 08:30N 51°16' E 003°51'0 0.0
2018-Jun-15 08:00N 51°16' E 003°51'0 0.0
2018-Jun-15 07:30N 51°16' E 003°51'0 0.0
2018-Jun-15 07:00N 51°16' E 003°51'0 0.0
2018-Jun-15 06:30N 51°16' E 003°51'0 0.0
2018-Jun-15 06:00N 51°16' E 003°51'0 0.0
2018-Jun-15 05:30N 51°16' E 003°51'0 0.0
2018-Jun-15 05:00N 51°16' E 003°51'0 0.0
2018-Jun-15 04:30N 51°16' E 003°51'0 0.0
2018-Jun-15 03:57N 51°16' E 003°51'0 0.0
2018-Jun-15 03:30N 51°16' E 003°51'0 0.0
2018-Jun-15 03:00N 51°16' E 003°51'0 0.0
2018-Jun-15 02:30N 51°16' E 003°51'0 0.0
2018-Jun-15 02:00N 51°16' E 003°51'0 0.0
2018-Jun-15 01:30N 51°16' E 003°51'0 0.0
2018-Jun-15 01:00N 51°16' E 003°51'0 0.0
2018-Jun-15 00:30N 51°16' E 003°51'0 0.0
2018-Jun-15 00:00N 51°16' E 003°51'0 0.0
2018-Jun-14 23:30N 51°16' E 003°51'0 0.0
2018-Jun-14 23:00N 51°16' E 003°51'0 0.0
2018-Jun-14 22:30N 51°16' E 003°51'0 0.0
2018-Jun-14 22:00N 51°16' E 003°51'0 0.0
2018-Jun-14 21:30N 51°16' E 003°51'0 0.0
2018-Jun-14 21:00N 51°16' E 003°51'0 0.0
2018-Jun-14 20:30N 51°16' E 003°51'0 0.0
2018-Jun-14 20:00N 51°16' E 003°51'0 0.0
2018-Jun-14 19:30N 51°16' E 003°51'0 0.0
2018-Jun-14 19:00N 51°16' E 003°51'0 0.0
2018-Jun-14 18:30N 51°16' E 003°51'0 0.0
2018-Jun-14 18:00N 51°16' E 003°51'0 0.0
2018-Jun-14 17:30N 51°16' E 003°51'0 0.0
2018-Jun-14 17:00N 51°16' E 003°51'0 0.0
2018-Jun-14 16:27N 51°16' E 003°51'0 0.0
2018-Jun-14 16:00N 51°16' E 003°51'0 0.0
2018-Jun-14 15:27N 51°16' E 003°51'0 0.0
2018-Jun-14 15:00N 51°16' E 003°51'0 0.0
2018-Jun-14 14:30N 51°16' E 003°51'0 0.0
2018-Jun-14 14:00N 51°16' E 003°51'0 0.0
2018-Jun-14 13:30N 51°16' E 003°51'0 0.0
2018-Jun-14 13:00N 51°16' E 003°51'0 0.0
2018-Jun-14 12:30N 51°16' E 003°51'0 0.0
2018-Jun-14 12:00N 51°16' E 003°51'0 0.0
2018-Jun-14 11:30N 51°16' E 003°51'0 0.0
2018-Jun-14 11:00N 51°16' E 003°51'0 0.0
2018-Jun-14 10:30N 51°16' E 003°51'0 0.0
2018-Jun-14 09:57N 51°16' E 003°51'0 0.0
2018-Jun-14 09:30N 51°16' E 003°51'0 0.0
2018-Jun-14 08:54N 51°16' E 003°51'0 0.0
2018-Jun-14 08:30N 51°16' E 003°51'0 0.0
2018-Jun-14 08:00N 51°16' E 003°51'0 0.0
2018-Jun-14 07:30N 51°16' E 003°51'0 0.0
2018-Jun-14 07:00N 51°16' E 003°51'0 0.0
2018-Jun-14 06:30N 51°16' E 003°51'0 0.0
2018-Jun-14 06:00N 51°16' E 003°51'0 0.0
2018-Jun-14 05:30N 51°16' E 003°51'0 0.0
2018-Jun-14 05:00N 51°16' E 003°51'0 0.0
2018-Jun-14 04:30N 51°16' E 003°51'0 0.0
2018-Jun-14 04:00N 51°16' E 003°51'0 0.0
2018-Jun-14 03:30N 51°16' E 003°51'0 0.0
2018-Jun-14 03:00N 51°16' E 003°51'0 0.0
2018-Jun-14 02:30N 51°16' E 003°51'0 0.0
2018-Jun-14 01:58N 51°16' E 003°51'0 0.0
2018-Jun-14 01:22N 51°16' E 003°51'0 0.0
2018-Jun-14 00:58N 51°16' E 003°51'0 0.0
2018-Jun-14 00:28N 51°16' E 003°51'0 0.0
2018-Jun-14 00:00N 51°16' E 003°51'0 1.0
2018-Jun-13 23:31N 51°17' E 003°50'3 6.4
2018-Jun-13 23:01N 51°20' E 003°49'0 0.0
2018-Jun-13 22:30N 51°20' E 003°49'1 1.2
2018-Jun-13 22:00N 51°20' E 003°49'0 0.5
2018-Jun-13 21:30N 51°21' E 003°49'2 4.5
2018-Jun-13 21:01N 51°22' E 003°46'5 9.2
2018-Jun-13 20:30N 51°26' E 003°42'510.3
2018-Jun-13 20:01N 51°25' E 003°33'510.3
2018-Jun-13 19:30N 51°24' E 003°25'5 9.5
2018-Jun-13 19:00N 51°24' E 003°17'4 8.5
2018-Jun-13 18:30N 51°24' E 003°11'4 8.6
2018-Jun-13 18:00N 51°24' E 003°04'4 8.7
2018-Jun-13 17:30N 51°22' E 002°57'5 9.5
2018-Jun-13 17:01N 51°22' E 002°50'4 8.5
2018-Jun-13 16:30N 51°22' E 002°43'4 8.5
2018-Jun-13 16:01N 51°22' E 002°36'1 1.2
2018-Jun-13 15:30N 51°21' E 002°36'0 0.4
2018-Jun-13 15:00N 51°21' E 002°35'0 0.9
2018-Jun-13 14:30N 51°21' E 002°35'1 1.7
2018-Jun-13 14:00N 51°20' E 002°34'2 3.1
2018-Jun-13 13:30N 51°22' E 002°33'2 3.8
2018-Jun-13 13:00N 51°22' E 002°30'3 7.0
2018-Jun-13 12:31N 51°20' E 002°25'612.6
2018-Jun-13 12:01N 51°17' E 002°16'612.6
2018-Jun-13 11:31N 51°15' E 002°07'612.6
2018-Jun-13 11:00N 51°12' E 001°58'612.4
2018-Jun-13 10:31N 51°08' E 001°50'612.9
2018-Jun-13 10:01N 51°04' E 001°43'612.7
2018-Jun-13 09:30N 50°59' E 001°36'612.0
2018-Jun-13 09:00N 50°54' E 001°30'510.9
2018-Jun-13 08:31N 50°49' E 001°27'610.6
2018-Jun-13 07:56N 50°44' E 001°23'410.2
2018-Jun-13 07:31N 50°40' E 001°19'86 9.4
2018-Jun-12 22:21N 50°11' W 000°48'911.3
2018-Jun-12 21:34N 50°08' W 001°02'112.1
2018-Jun-12 21:27N 50°08' W 001°04'612.5
2018-Jun-12 21:00N 50°06' W 001°12'713.1
2018-Jun-12 20:30N 50°04' W 001°22'713.7
2018-Jun-12 20:00N 50°02' W 001°32'714.2
2018-Jun-12 19:31N 50°00' W 001°42'714.5
2018-Jun-12 19:00N 49°59' W 001°54'814.9
2018-Jun-12 18:30N 49°57' W 002°05'4712.6
2018-Jun-12 14:47N 49°40' W 003°13'311.1
2018-Jun-12 14:30N 49°39' W 003°17'510.6
2018-Jun-12 14:00N 49°36' W 003°24'79 9.2
2018-Jun-12 05:28N 48°57' W 005°09'4 9.4
2018-Jun-12 05:00N 48°55' W 005°14'5 9.9
2018-Jun-12 04:29N 48°52' W 005°21'610.1
2018-Jun-12 03:56N 48°49' W 005°28'5110.2
2018-Jun-11 22:53N 48°06' W 006°09'  
Track history (hours):
 
Tides and Currents Weather Stations Pressure Air Temp Water Temp Dewpoint Dewpoint Depression Visibility Wind Speed Wind Dir Waves Ship Positions

Cement Trader

Last reported at 2018-Jun-20 17:00 UTC. Time now 2018-Jun-20 17:16 UTC.
Position N 38°30' W 008°56'.

Length 106 m; draft 4.5 m.

Type: Cargo ship. MMSI: 304048000.

Date/timePositionNaut miles runAvg speedWind from/ knotsBaromVisibWave heightAir tempDewpointWater temp
2018-Jun-20 17:00N 38°30' W 008°56'0 0.0
2018-Jun-20 16:30N 38°30' W 008°56'0 0.0
2018-Jun-20 16:00N 38°30' W 008°56'0 0.0
2018-Jun-20 15:30N 38°30' W 008°56'0 0.0
2018-Jun-20 15:00N 38°30' W 008°56'0 0.0
2018-Jun-20 14:30N 38°30' W 008°56'0 0.0
2018-Jun-20 14:00N 38°30' W 008°56'0 0.0
2018-Jun-20 13:30N 38°30' W 008°56'0 0.0
2018-Jun-20 13:00N 38°30' W 008°56'0 0.0
2018-Jun-20 12:30N 38°30' W 008°56'0 0.0
2018-Jun-20 12:00N 38°30' W 008°56'0 0.0
2018-Jun-20 11:30N 38°30' W 008°56'0 0.0
2018-Jun-20 11:00N 38°30' W 008°56'0 0.0
2018-Jun-20 10:30N 38°30' W 008°56'0 0.0
2018-Jun-20 10:00N 38°30' W 008°56'0 0.0
2018-Jun-20 09:30N 38°30' W 008°56'0 0.0
2018-Jun-20 09:00N 38°30' W 008°56'0 0.0
2018-Jun-20 08:30N 38°30' W 008°56'0 0.0
2018-Jun-20 08:00N 38°30' W 008°56'4 7.1
2018-Jun-20 07:30N 38°27' W 008°59'5 9.8
2018-Jun-20 07:00N 38°23' W 009°02'0 0.4
2018-Jun-20 06:30N 38°23' W 009°02'1 1.4
2018-Jun-20 06:00N 38°22' W 009°02'0 0.7
2018-Jun-20 05:30N 38°22' W 009°02'0 0.7
2018-Jun-20 05:00N 38°22' W 009°03'1 1.6
2018-Jun-20 04:30N 38°22' W 009°03'3 5.1
2018-Jun-20 04:00N 38°21' W 009°07'510.7
2018-Jun-20 03:30N 38°21' W 009°13'611.3
2018-Jun-20 03:00N 38°22' W 009°20'611.3
2018-Jun-20 02:30N 38°25' W 009°27'611.3
2018-Jun-20 02:00N 38°27' W 009°34'611.4
2018-Jun-20 01:30N 38°28' W 009°41'611.8
2018-Jun-20 01:00N 38°30' W 009°48'612.0
2018-Jun-20 00:30N 38°32' W 009°55'611.9
2018-Jun-20 00:00N 38°34' W 010°02'611.3
2018-Jun-19 23:30N 38°39' W 010°05'611.8
2018-Jun-19 23:00N 38°45' W 010°06'612.2
2018-Jun-19 22:30N 38°51' W 010°06'612.1
2018-Jun-19 22:01N 38°57' W 010°07'612.1
2018-Jun-19 21:30N 39°03' W 010°07'611.8
2018-Jun-19 21:00N 39°09' W 010°07'1511.9
2018-Jun-19 19:45N 39°24' W 010°07'4111.8
2018-Jun-19 16:19N 40°05' W 010°07'  
2018-Jun-17 04:41N 49°44' W 003°39'312.0
2018-Jun-17 04:28N 49°45' W 003°35'612.6
2018-Jun-17 04:00N 49°48' W 003°27'713.2
2018-Jun-17 03:28N 49°52' W 003°18'613.4
2018-Jun-17 02:59N 49°55' W 003°09'613.3
2018-Jun-17 02:30N 49°57' W 002°60'612.8
2018-Jun-17 02:00N 50°00' W 002°51'612.3
2018-Jun-17 01:30N 50°02' W 002°42'611.5
2018-Jun-17 00:56N 50°04' W 002°32'77 9.6
2018-Jun-16 16:55N 50°26' W 000°37'813.0
2018-Jun-16 16:19N 50°28' W 000°25'2812.4
2018-Jun-16 14:04N 50°35' E 000°17'111.9
2018-Jun-16 14:00N 50°36' E 000°18'611.4
2018-Jun-16 13:30N 50°37' E 000°27'510.9
2018-Jun-16 13:00N 50°39' E 000°35'510.6
2018-Jun-16 12:30N 50°42' E 000°42'510.2
2018-Jun-16 12:00N 50°45' E 000°48'510.2
2018-Jun-16 11:30N 50°48' E 000°55'510.2
2018-Jun-16 11:00N 50°51' E 001°01'610.7
2018-Jun-16 10:29N 50°55' E 001°08'611.9
2018-Jun-16 10:00N 50°58' E 001°15'713.5
2018-Jun-16 09:31N 51°02' E 001°23'714.9
2018-Jun-16 09:00N 51°07' E 001°33'714.9
2018-Jun-16 08:30N 51°12' E 001°42'714.0
2018-Jun-16 08:00N 51°17' E 001°49'713.2
2018-Jun-16 07:31N 51°22' E 001°56'510.6
2018-Jun-16 07:00N 51°24' E 002°04'612.2
2018-Jun-16 06:30N 51°22' E 002°13'611.4
2018-Jun-16 06:00N 51°21' E 002°22'611.3
2018-Jun-16 05:31N 51°23' E 002°30'611.1
2018-Jun-16 05:00N 51°23' E 002°39'510.5
2018-Jun-16 04:31N 51°22' E 002°48'610.8
2018-Jun-16 04:00N 51°22' E 002°57'510.2
2018-Jun-16 03:30N 51°22' E 003°05'510.2
2018-Jun-16 03:00N 51°23' E 003°13'5 9.8
2018-Jun-16 02:30N 51°24' E 003°20'5 9.2
2018-Jun-16 02:00N 51°25' E 003°28'4 7.8
2018-Jun-16 01:30N 51°25' E 003°34'4 7.5
2018-Jun-16 01:00N 51°25' E 003°40'510.2
2018-Jun-16 00:30N 51°22' E 003°46'3 4.9
2018-Jun-15 23:58N 51°20' E 003°49'0 0.0
2018-Jun-15 23:28N 51°20' E 003°49'0 0.1
2018-Jun-15 22:59N 51°20' E 003°49'1 1.3
2018-Jun-15 22:30N 51°19' E 003°49'2 3.4
2018-Jun-15 22:01N 51°18' E 003°50'1 2.4
2018-Jun-15 21:28N 51°16' E 003°51'0 0.0
2018-Jun-15 20:58N 51°16' E 003°51'0 0.0
2018-Jun-15 20:28N 51°16' E 003°51'0 0.0
2018-Jun-15 19:58N 51°16' E 003°51'0 0.0
2018-Jun-15 19:25N 51°16' E 003°51'0 0.0
2018-Jun-15 18:58N 51°16' E 003°51'0 0.0
2018-Jun-15 18:28N 51°16' E 003°51'0 0.0
2018-Jun-15 17:49N 51°16' E 003°51'0 0.0
2018-Jun-15 17:28N 51°16' E 003°51'0 0.0
2018-Jun-15 16:58N 51°16' E 003°51'0 0.0
2018-Jun-15 16:25N 51°16' E 003°51'0 0.0
2018-Jun-15 15:58N 51°16' E 003°51'0 0.0
2018-Jun-15 15:28N 51°16' E 003°51'0 0.0
2018-Jun-15 14:52N 51°16' E 003°51'0 0.0
2018-Jun-15 14:28N 51°16' E 003°51'0 0.0
2018-Jun-15 13:55N 51°16' E 003°51'0 0.0
2018-Jun-15 13:28N 51°16' E 003°51'0 0.0
2018-Jun-15 12:58N 51°16' E 003°51'0 0.0
2018-Jun-15 12:28N 51°16' E 003°51'0 0.0
2018-Jun-15 11:58N 51°16' E 003°51'0 0.0
2018-Jun-15 11:25N 51°16' E 003°51'0 0.0
2018-Jun-15 10:58N 51°16' E 003°51'0 0.0
2018-Jun-15 10:28N 51°16' E 003°51'0 0.0
2018-Jun-15 09:58N 51°16' E 003°51'0 0.0
2018-Jun-15 09:28N 51°16' E 003°51'0 0.0
2018-Jun-15 08:55N 51°16' E 003°51'0 0.0
2018-Jun-15 08:30N 51°16' E 003°51'0 0.0
2018-Jun-15 08:00N 51°16' E 003°51'0 0.0
2018-Jun-15 07:30N 51°16' E 003°51'0 0.0
2018-Jun-15 07:00N 51°16' E 003°51'0 0.0
2018-Jun-15 06:30N 51°16' E 003°51'0 0.0
2018-Jun-15 06:00N 51°16' E 003°51'0 0.0
2018-Jun-15 05:30N 51°16' E 003°51'0 0.0
2018-Jun-15 05:00N 51°16' E 003°51'0 0.0
2018-Jun-15 04:30N 51°16' E 003°51'0 0.0
2018-Jun-15 03:57N 51°16' E 003°51'0 0.0
2018-Jun-15 03:30N 51°16' E 003°51'0 0.0
2018-Jun-15 03:00N 51°16' E 003°51'0 0.0
2018-Jun-15 02:30N 51°16' E 003°51'0 0.0
2018-Jun-15 02:00N 51°16' E 003°51'0 0.0
2018-Jun-15 01:30N 51°16' E 003°51'0 0.0
2018-Jun-15 01:00N 51°16' E 003°51'0 0.0
2018-Jun-15 00:30N 51°16' E 003°51'0 0.0
2018-Jun-15 00:00N 51°16' E 003°51'0 0.0
2018-Jun-14 23:30N 51°16' E 003°51'0 0.0
2018-Jun-14 23:00N 51°16' E 003°51'0 0.0
2018-Jun-14 22:30N 51°16' E 003°51'0 0.0
2018-Jun-14 22:00N 51°16' E 003°51'0 0.0
2018-Jun-14 21:30N 51°16' E 003°51'0 0.0
2018-Jun-14 21:00N 51°16' E 003°51'0 0.0
2018-Jun-14 20:30N 51°16' E 003°51'0 0.0
2018-Jun-14 20:00N 51°16' E 003°51'0 0.0
2018-Jun-14 19:30N 51°16' E 003°51'0 0.0
2018-Jun-14 19:00N 51°16' E 003°51'0 0.0
2018-Jun-14 18:30N 51°16' E 003°51'0 0.0
2018-Jun-14 18:00N 51°16' E 003°51'0 0.0
2018-Jun-14 17:30N 51°16' E 003°51'0 0.0
2018-Jun-14 17:00N 51°16' E 003°51'0 0.0
2018-Jun-14 16:27N 51°16' E 003°51'0 0.0
2018-Jun-14 16:00N 51°16' E 003°51'0 0.0
2018-Jun-14 15:27N 51°16' E 003°51'0 0.0
2018-Jun-14 15:00N 51°16' E 003°51'0 0.0
2018-Jun-14 14:30N 51°16' E 003°51'0 0.0
2018-Jun-14 14:00N 51°16' E 003°51'0 0.0
2018-Jun-14 13:30N 51°16' E 003°51'0 0.0
2018-Jun-14 13:00N 51°16' E 003°51'0 0.0
2018-Jun-14 12:30N 51°16' E 003°51'0 0.0
2018-Jun-14 12:00N 51°16' E 003°51'0 0.0
2018-Jun-14 11:30N 51°16' E 003°51'0 0.0
2018-Jun-14 11:00N 51°16' E 003°51'0 0.0
2018-Jun-14 10:30N 51°16' E 003°51'0 0.0
2018-Jun-14 09:57N 51°16' E 003°51'0 0.0
2018-Jun-14 09:30N 51°16' E 003°51'0 0.0
2018-Jun-14 08:54N 51°16' E 003°51'0 0.0
2018-Jun-14 08:30N 51°16' E 003°51'0 0.0
2018-Jun-14 08:00N 51°16' E 003°51'0 0.0
2018-Jun-14 07:30N 51°16' E 003°51'0 0.0
2018-Jun-14 07:00N 51°16' E 003°51'0 0.0
2018-Jun-14 06:30N 51°16' E 003°51'0 0.0
2018-Jun-14 06:00N 51°16' E 003°51'0 0.0
2018-Jun-14 05:30N 51°16' E 003°51'0 0.0
2018-Jun-14 05:00N 51°16' E 003°51'0 0.0
2018-Jun-14 04:30N 51°16' E 003°51'0 0.0
2018-Jun-14 04:00N 51°16' E 003°51'0 0.0
2018-Jun-14 03:30N 51°16' E 003°51'0 0.0
2018-Jun-14 03:00N 51°16' E 003°51'0 0.0
2018-Jun-14 02:30N 51°16' E 003°51'0 0.0
2018-Jun-14 01:58N 51°16' E 003°51'0 0.0
2018-Jun-14 01:22N 51°16' E 003°51'0 0.0
2018-Jun-14 00:58N 51°16' E 003°51'0 0.0
2018-Jun-14 00:28N 51°16' E 003°51'0 0.0
2018-Jun-14 00:00N 51°16' E 003°51'0 1.0
2018-Jun-13 23:31N 51°17' E 003°50'3 6.4
2018-Jun-13 23:01N 51°20' E 003°49'0 0.0
2018-Jun-13 22:30N 51°20' E 003°49'1 1.2
2018-Jun-13 22:00N 51°20' E 003°49'0 0.5
2018-Jun-13 21:30N 51°21' E 003°49'2 4.5
2018-Jun-13 21:01N 51°22' E 003°46'5 9.2
2018-Jun-13 20:30N 51°26' E 003°42'510.3
2018-Jun-13 20:01N 51°25' E 003°33'510.3
2018-Jun-13 19:30N 51°24' E 003°25'5 9.5
2018-Jun-13 19:00N 51°24' E 003°17'4 8.5
2018-Jun-13 18:30N 51°24' E 003°11'4 8.6
2018-Jun-13 18:00N 51°24' E 003°04'4 8.7
2018-Jun-13 17:30N 51°22' E 002°57'5 9.5
2018-Jun-13 17:01N 51°22' E 002°50'4 8.5
2018-Jun-13 16:30N 51°22' E 002°43'4 8.5
2018-Jun-13 16:01N 51°22' E 002°36'1 1.2
2018-Jun-13 15:30N 51°21' E 002°36'0 0.4
2018-Jun-13 15:00N 51°21' E 002°35'0 0.9
2018-Jun-13 14:30N 51°21' E 002°35'1 1.7
2018-Jun-13 14:00N 51°20' E 002°34'2 3.1
2018-Jun-13 13:30N 51°22' E 002°33'2 3.8
2018-Jun-13 13:00N 51°22' E 002°30'3 7.0
2018-Jun-13 12:31N 51°20' E 002°25'612.6
2018-Jun-13 12:01N 51°17' E 002°16'612.6
2018-Jun-13 11:31N 51°15' E 002°07'612.6
2018-Jun-13 11:00N 51°12' E 001°58'612.4
2018-Jun-13 10:31N 51°08' E 001°50'612.9
2018-Jun-13 10:01N 51°04' E 001°43'612.7
2018-Jun-13 09:30N 50°59' E 001°36'612.0
2018-Jun-13 09:00N 50°54' E 001°30'510.9
2018-Jun-13 08:31N 50°49' E 001°27'610.6
2018-Jun-13 07:56N 50°44' E 001°23'410.2
2018-Jun-13 07:31N 50°40' E 001°19'86 9.4
2018-Jun-12 22:21N 50°11' W 000°48'911.3
2018-Jun-12 21:34N 50°08' W 001°02'112.1
2018-Jun-12 21:27N 50°08' W 001°04'612.5
2018-Jun-12 21:00N 50°06' W 001°12'713.1
2018-Jun-12 20:30N 50°04' W 001°22'713.7
2018-Jun-12 20:00N 50°02' W 001°32'714.2
2018-Jun-12 19:31N 50°00' W 001°42'714.5
2018-Jun-12 19:00N 49°59' W 001°54'814.9
2018-Jun-12 18:30N 49°57' W 002°05'4712.6
2018-Jun-12 14:47N 49°40' W 003°13'311.1
2018-Jun-12 14:30N 49°39' W 003°17'510.6
2018-Jun-12 14:00N 49°36' W 003°24'79 9.2
2018-Jun-12 05:28N 48°57' W 005°09'4 9.4
2018-Jun-12 05:00N 48°55' W 005°14'5 9.9
2018-Jun-12 04:29N 48°52' W 005°21'610.1
2018-Jun-12 03:56N 48°49' W 005°28'5110.2
2018-Jun-11 22:53N 48°06' W 006°09'  

Dump ship's entire track history